This is the latest recevied weather packets stored in our database for station/object PY2ELM-13. If no packets are shown the sender has not sent any weather packets the latest 10 day(s).
| Time | Temp. | Humidity | Pressure | Rain* | Wind** | Luminosity | Snow |
|---|---|---|---|---|---|---|---|
| 1788024828 | 36.67° C | 34% | 1016.7 hPa | - | - | - | - |
| 1788024228 | 37.78° C | 32% | 1016.5 hPa | - | - | - | - |
| 1788023628 | 37.22° C | 34% | 1016.8 hPa | - | - | - | - |
| 1788023028 | 37.22° C | 34% | 1017 hPa | - | - | - | - |
| 1788022428 | 36.67° C | 34% | 1017.1 hPa | - | - | - | - |
| 1788021828 | 31.67° C | 42% | 1018.4 hPa | - | - | - | - |
| 1788021228 | 31.11° C | 42% | 1018.7 hPa | - | - | - | - |
| 1788020628 | 31.11° C | 43% | 1018.9 hPa | - | - | - | - |
| 1788020028 | 31.11° C | 44% | 1019.1 hPa | - | - | - | - |
| 1788019428 | 31.11° C | 42% | 1019.2 hPa | - | - | - | - |
| 1788018827 | 31.11° C | 42% | 1019.5 hPa | - | - | - | - |
| 1788018227 | 31.11° C | 41% | 1019.7 hPa | - | - | - | - |
| 1788017627 | 30.56° C | 42% | 1019.9 hPa | - | - | - | - |
| 1788017027 | 30.56° C | 43% | 1020 hPa | - | - | - | - |
| 1788016427 | 30° C | 44% | 1020.1 hPa | - | - | - | - |
| 1788015828 | 30° C | 44% | 1020.6 hPa | - | - | - | - |
| 1788015228 | 29.44° C | 45% | 1021 hPa | - | - | - | - |
| 1788014627 | 29.44° C | 46% | 1021.2 hPa | - | - | - | - |
| 1788014027 | 28.89° C | 47% | 1021.2 hPa | - | - | - | - |
| 1788013427 | 28.33° C | 49% | 1021.2 hPa | - | - | - | - |
| 1788012829 | 28.33° C | 49% | 1021.6 hPa | - | - | - | - |
| 1788012227 | 28.33° C | 49% | 1022 hPa | - | - | - | - |
| 1788011627 | 28.33° C | 49% | 1022.5 hPa | - | - | - | - |
| 1788011027 | 28.33° C | 49% | 1022.5 hPa | - | - | - | - |
| 1788010427 | 27.78° C | 50% | 1022.6 hPa | - | - | - | - |
* Rain since midnight (hover to see other rain measurements)
** Current wind speed in m/s (hover to see current wind gust speed)